EQY weather

Charlotte-Monroe Executive Airport
Monroe, North Carolina, United States

Public forecast

Using degrees Fahrenheit for public forecast. Weather courtesy of forecast.io.

METAR (pilot weather report)

Retrieved 2019/03/23 00:53 UTC (1 hour ago):

KEQY 230053Z AUTO 32005KT 10SM CLR 14/M03 A2989 RMK AO2 SLP134 T01391033

TAF (pilot weather forecast)

Forecast is more than 12 hours old.

Closest forecast is Charlotte Douglas International Airport, 19.7 nm (36.5 km) NW. Retrieved 2019/03/22 00:22 UTC (1 day ago):

TAF KCLT 222320Z 2300/2406 30011KT P6SM FEW060 FM230300 33006KT P6SM SKC FM232200 26004KT P6SM SKC